createdAt,value
2023-04-28T00:00:03.442Z,3.59
2023-04-28T00:02:51.316Z,3.59
2023-04-28T00:05:19.799Z,3.59
2023-04-28T00:07:47.825Z,3.55
2023-04-28T00:10:16.259Z,3.48
2023-04-28T00:12:43.993Z,3.42
2023-04-28T00:15:13.497Z,3.38
2023-04-28T00:17:41.377Z,3.35
2023-04-28T00:20:09.983Z,3.29
2023-04-28T00:25:23.807Z,3.16
2023-04-28T00:28:08.978Z,3.11
2023-04-28T00:30:55.694Z,3.12
2023-04-28T00:33:23.427Z,3.13
2023-04-28T00:35:59.417Z,3.12
2023-04-28T00:38:27.302Z,3.06
2023-04-28T00:40:55.093Z,3.00
2023-04-28T00:43:22.901Z,2.94
2023-04-28T00:45:51.092Z,2.90
2023-04-28T00:48:19.622Z,2.90
2023-04-28T00:50:48.495Z,2.85
2023-04-28T00:53:16.528Z,2.87
2023-04-28T00:55:46.953Z,2.88
2023-04-28T00:58:14.738Z,2.88
2023-04-28T01:00:43.464Z,2.85
2023-04-28T01:03:11.346Z,2.87
2023-04-28T01:05:39.501Z,2.81
2023-04-28T01:08:29.030Z,2.71
2023-04-28T01:10:57.311Z,2.64
2023-04-28T01:13:25.166Z,2.65
2023-04-28T01:15:52.976Z,2.68
2023-04-28T01:18:21.083Z,2.66
2023-04-28T01:20:49.255Z,2.66
2023-04-28T01:23:18.039Z,2.64
2023-04-28T01:25:45.837Z,2.57
2023-04-28T01:28:13.609Z,2.51
2023-04-28T01:30:41.375Z,2.47
2023-04-28T01:33:09.764Z,2.46
2023-04-28T01:35:38.334Z,2.44
2023-04-28T01:38:06.175Z,2.44
2023-04-28T01:40:34.372Z,2.44
2023-04-28T01:43:02.178Z,2.40
2023-04-28T01:45:29.873Z,2.36
2023-04-28T01:47:58.193Z,2.35
2023-04-28T01:50:45.531Z,2.32
2023-04-28T01:53:14.354Z,2.23
2023-04-28T01:55:42.156Z,2.17
2023-04-28T01:58:10.784Z,2.15
2023-04-28T02:00:39.204Z,2.12
2023-04-28T02:03:07.024Z,2.09
2023-04-28T02:05:34.834Z,2.10
2023-04-28T02:08:02.641Z,2.12
2023-04-28T02:10:30.476Z,2.15
2023-04-28T02:12:58.756Z,2.14
2023-04-28T02:15:27.198Z,2.12
2023-04-28T02:17:55.091Z,2.10
2023-04-28T02:20:22.881Z,2.07
2023-04-28T02:22:50.711Z,2.10
2023-04-28T02:25:18.606Z,2.07
2023-04-28T02:27:46.969Z,2.12
2023-04-28T02:30:15.415Z,2.13
2023-04-28T02:32:43.175Z,2.09
2023-04-28T02:35:10.999Z,2.06
2023-04-28T02:37:38.858Z,2.07
2023-04-28T02:40:07.900Z,2.07
2023-04-28T02:42:36.280Z,2.05
2023-04-28T02:45:05.967Z,1.99
2023-04-28T02:47:33.805Z,1.87
2023-04-28T02:50:01.612Z,1.82
2023-04-28T02:52:29.407Z,1.78
2023-04-28T02:54:58.036Z,1.81
2023-04-28T02:57:26.793Z,1.85
2023-04-28T02:59:54.547Z,1.86
2023-04-28T03:02:23.409Z,1.82
2023-04-28T03:04:51.695Z,1.76
2023-04-28T03:07:19.493Z,1.78
2023-04-28T03:09:48.631Z,1.72
2023-04-28T03:12:16.455Z,1.68
2023-04-28T03:14:44.198Z,1.66
2023-04-28T03:17:14.433Z,1.61
2023-04-28T03:19:42.195Z,1.58
2023-04-28T03:22:09.910Z,1.53
2023-04-28T03:24:37.663Z,1.51
2023-04-28T03:27:06.021Z,1.50
2023-04-28T03:29:33.769Z,1.53
2023-04-28T03:32:01.639Z,1.56
2023-04-28T03:34:29.507Z,1.57
2023-04-28T03:36:57.288Z,1.58
2023-04-28T03:39:25.039Z,1.54
2023-04-28T03:41:52.809Z,1.58
2023-04-28T03:44:21.701Z,1.66
2023-04-28T03:46:49.939Z,1.74
2023-04-28T03:49:17.675Z,1.80
2023-04-28T03:51:45.570Z,1.84
2023-04-28T03:54:13.620Z,1.88
2023-04-28T03:56:42.063Z,1.93
2023-04-28T03:59:11.864Z,1.92
2023-04-28T04:01:39.836Z,2.00
2023-04-28T04:04:08.050Z,2.13
2023-04-28T04:06:36.218Z,2.24
2023-04-28T04:09:04.179Z,2.35
2023-04-28T04:11:31.928Z,2.51
2023-04-28T04:13:59.816Z,2.63
2023-04-28T04:16:27.809Z,2.76
2023-04-28T04:18:55.578Z,2.85
2023-04-28T04:21:23.762Z,2.94
2023-04-28T04:23:51.593Z,3.02
2023-04-28T04:26:19.665Z,3.07
2023-04-28T04:28:47.372Z,3.14
2023-04-28T04:31:15.631Z,3.20
2023-04-28T04:33:43.835Z,3.25
2023-04-28T04:36:12.201Z,3.26
2023-04-28T04:38:40.594Z,3.25
2023-04-28T04:41:08.425Z,3.26
2023-04-28T04:43:36.128Z,3.30
2023-04-28T04:46:04.322Z,3.36
2023-04-28T04:48:32.797Z,3.41
2023-04-28T04:51:00.563Z,3.46
2023-04-28T04:53:28.344Z,3.53
2023-04-28T04:55:56.572Z,3.63
2023-04-28T04:58:24.924Z,3.80
2023-04-28T05:00:52.783Z,3.98
2023-04-28T05:03:21.126Z,4.13
2023-04-28T05:05:49.556Z,4.26
2023-04-28T05:08:17.583Z,4.39
2023-04-28T05:10:45.605Z,4.51
2023-04-28T05:13:13.429Z,4.61
2023-04-28T05:15:41.277Z,4.73
2023-04-28T05:18:11.142Z,4.85
2023-04-28T05:20:39.810Z,4.93
2023-04-28T05:23:08.273Z,5.01
2023-04-28T05:25:36.143Z,5.09
2023-04-28T05:28:07.676Z,5.16
2023-04-28T05:30:35.643Z,5.26
2023-04-28T05:33:03.515Z,5.36
2023-04-28T05:35:32.054Z,5.45
2023-04-28T05:37:59.927Z,5.52
2023-04-28T05:40:28.914Z,5.53
2023-04-28T05:42:56.748Z,5.52
2023-04-28T05:45:25.492Z,5.49
2023-04-28T05:47:53.879Z,5.49
2023-04-28T05:50:21.889Z,5.52
2023-04-28T05:52:49.703Z,5.59
2023-04-28T05:55:17.648Z,5.68
2023-04-28T05:57:52.240Z,5.76
2023-04-28T06:00:22.160Z,5.85
2023-04-28T06:02:50.136Z,5.95
2023-04-28T06:05:19.362Z,6.04
2023-04-28T06:12:06.369Z,6.24
2023-04-28T06:17:45.597Z,6.42
2023-04-28T06:20:14.256Z,6.50
2023-04-28T06:22:43.237Z,6.59
2023-04-28T06:25:11.082Z,6.67
2023-04-28T06:27:38.954Z,6.74
2023-04-28T06:30:07.428Z,6.81
2023-04-28T06:32:36.049Z,6.89
2023-04-28T06:35:04.252Z,6.96
2023-04-28T06:37:32.636Z,7.02
2023-04-28T06:40:00.424Z,7.06
2023-04-28T06:42:28.641Z,7.13
2023-04-28T06:44:56.863Z,7.21
2023-04-28T06:47:24.990Z,7.28
2023-04-28T06:49:52.889Z,7.37
2023-04-28T06:52:33.370Z,7.42
2023-04-28T06:55:09.574Z,7.50
2023-04-28T06:57:38.347Z,7.56
2023-04-28T07:00:08.202Z,7.64
2023-04-28T07:02:37.275Z,7.74
2023-04-28T07:05:05.731Z,7.83
2023-04-28T07:07:33.971Z,7.88
2023-04-28T07:10:02.468Z,7.93
2023-04-28T07:12:30.310Z,8.00
2023-04-28T07:14:58.143Z,8.03
2023-04-28T07:17:26.578Z,8.09
2023-04-28T07:19:54.864Z,8.17
2023-04-28T07:22:22.835Z,8.22
2023-04-28T07:24:50.828Z,8.26
2023-04-28T07:27:18.718Z,8.31
2023-04-28T07:29:46.995Z,8.39
2023-04-28T07:32:15.636Z,8.46
2023-04-28T07:34:43.563Z,8.51
2023-04-28T07:37:12.086Z,8.55
2023-04-28T07:39:40.708Z,8.63
2023-04-28T07:42:08.665Z,8.70
2023-04-28T07:44:37.378Z,8.75
2023-04-28T07:47:05.865Z,8.84
2023-04-28T07:49:33.833Z,8.99
2023-04-28T07:52:02.014Z,9.08
2023-04-28T07:54:29.883Z,9.16
2023-04-28T07:56:58.195Z,9.19
2023-04-28T07:59:26.874Z,9.29
2023-04-28T08:01:54.780Z,9.41
2023-04-28T08:04:23.530Z,9.58
2023-04-28T08:06:55.203Z,9.82
2023-04-28T08:09:24.995Z,10.13
2023-04-28T08:11:53.386Z,10.46
2023-04-28T08:14:21.717Z,10.76
2023-04-28T08:16:49.835Z,10.97
2023-04-28T08:19:17.693Z,11.19
2023-04-28T08:21:45.518Z,11.39
2023-04-28T08:24:13.925Z,11.45
2023-04-28T08:26:42.679Z,11.50
2023-04-28T08:29:10.516Z,11.52
2023-04-28T08:31:44.772Z,11.50
2023-04-28T08:34:15.173Z,11.41
2023-04-28T08:36:44.714Z,11.31
2023-04-28T08:39:13.747Z,11.20
2023-04-28T08:41:41.774Z,11.11
2023-04-28T08:44:10.210Z,11.05
2023-04-28T08:46:42.358Z,10.99
2023-04-28T08:49:18.789Z,10.94
2023-04-28T08:51:59.320Z,10.94
2023-04-28T08:54:36.550Z,10.98
2023-04-28T08:57:05.932Z,11.01
2023-04-28T09:00:00.778Z,11.08
2023-04-28T09:02:29.278Z,11.20
2023-04-28T09:04:57.884Z,11.27
2023-04-28T09:07:25.964Z,11.35
2023-04-28T09:10:17.360Z,11.49
2023-04-28T09:12:58.592Z,11.68
2023-04-28T09:15:37.884Z,11.84
2023-04-28T09:18:08.099Z,12.00
2023-04-28T09:20:38.565Z,12.18
2023-04-28T09:23:14.854Z,12.29
2023-04-28T09:26:07.458Z,12.44
2023-04-28T09:28:39.494Z,12.58
2023-04-28T09:31:48.611Z,12.69
2023-04-28T09:34:19.857Z,12.91
2023-04-28T09:36:48.924Z,13.10
2023-04-28T09:39:30.409Z,13.26
2023-04-28T09:41:59.187Z,13.39
2023-04-28T09:44:27.523Z,13.44
2023-04-28T09:46:56.135Z,13.37
2023-04-28T09:49:23.968Z,13.33
2023-04-28T09:51:51.787Z,13.27
2023-04-28T09:54:21.931Z,13.28
2023-04-28T09:56:51.952Z,13.33
2023-04-28T09:59:21.659Z,13.36
2023-04-28T10:07:38.823Z,13.61
